createdAt,value
2019-05-18T00:00:48.767Z,100249.94
2019-05-18T00:01:54.681Z,100253.10
2019-05-18T00:02:59.738Z,100257.27
2019-05-18T00:04:05.714Z,100248.57
2019-05-18T00:05:11.001Z,100251.76
2019-05-18T00:06:16.713Z,100251.41
2019-05-18T00:07:22.056Z,100252.39
2019-05-18T00:08:28.137Z,100247.23
2019-05-18T00:09:33.163Z,100255.36
2019-05-18T00:10:38.736Z,100259.85
2019-05-18T00:11:43.690Z,100255.67
2019-05-18T00:12:49.262Z,100253.18
2019-05-18T00:13:54.322Z,100255.00
2019-05-18T00:15:00.093Z,100255.98
2019-05-18T00:16:05.239Z,100254.66
2019-05-18T00:17:24.438Z,100256.64
2019-05-18T00:18:17.836Z,100253.63
2019-05-18T00:19:23.726Z,100256.43
2019-05-18T00:20:28.728Z,100250.78
2019-05-18T00:21:34.679Z,100253.09
2019-05-18T00:22:39.646Z,100251.91
2019-05-18T00:23:45.389Z,100246.25
2019-05-18T00:24:50.498Z,100251.58
2019-05-18T00:25:55.950Z,100252.56
2019-05-18T00:27:00.962Z,100247.23
2019-05-18T00:28:06.831Z,100247.59
2019-05-18T00:29:12.246Z,100249.55
2019-05-18T00:30:18.110Z,100247.41
2019-05-18T00:31:23.735Z,100248.22
2019-05-18T00:32:29.540Z,100249.72
2019-05-18T00:33:34.660Z,100251.19
2019-05-18T00:34:40.782Z,100256.19
2019-05-18T00:35:45.790Z,100246.87
2019-05-18T00:36:51.673Z,100241.19
2019-05-18T00:37:56.601Z,100241.68
2019-05-18T00:39:02.495Z,100235.51
2019-05-18T00:40:09.119Z,100240.52
2019-05-18T00:41:14.669Z,100234.34
2019-05-18T00:42:22.567Z,100230.48
2019-05-18T00:43:28.250Z,100234.48
2019-05-18T00:44:33.287Z,100228.00
2019-05-18T00:45:39.566Z,100226.14
2019-05-18T00:46:44.552Z,100223.48
2019-05-18T00:47:50.334Z,100222.98
2019-05-18T00:48:55.295Z,100223.20
2019-05-18T00:50:01.406Z,100218.85
2019-05-18T00:51:06.370Z,100218.69
2019-05-18T00:52:12.107Z,100212.86
2019-05-18T00:53:17.124Z,100213.22
2019-05-18T00:54:22.721Z,100215.88
2019-05-18T00:55:28.089Z,100219.22
2019-05-18T00:56:33.729Z,100218.23
2019-05-18T00:57:38.675Z,100212.42
2019-05-18T00:58:44.236Z,100211.75
2019-05-18T00:59:49.376Z,100213.93
2019-05-18T01:00:54.864Z,100210.28
2019-05-18T01:01:59.896Z,100213.27
2019-05-18T01:03:05.567Z,100213.13
2019-05-18T01:04:10.523Z,100213.62
2019-05-18T01:05:16.197Z,100212.78
2019-05-18T01:06:21.568Z,100216.45
2019-05-18T01:07:27.889Z,100219.61
2019-05-18T01:08:32.854Z,100220.09
2019-05-18T01:09:38.694Z,100216.95
2019-05-18T01:10:44.421Z,100217.79
2019-05-18T01:11:50.032Z,100220.94
2019-05-18T01:12:55.356Z,100216.95
2019-05-18T01:14:01.328Z,100224.27
2019-05-18T01:15:07.127Z,100221.13
2019-05-18T01:16:12.661Z,100219.65
2019-05-18T01:17:17.638Z,100222.63
2019-05-18T01:18:23.293Z,100217.34
2019-05-18T01:19:28.664Z,100216.69
2019-05-18T01:20:34.269Z,100212.38
2019-05-18T01:21:39.712Z,100211.73
2019-05-18T01:22:45.519Z,100208.59
2019-05-18T01:23:50.894Z,100208.31
2019-05-18T01:24:56.524Z,100206.98
2019-05-18T01:26:01.537Z,100213.86
2019-05-18T01:27:07.178Z,100212.20
2019-05-18T01:28:12.481Z,100211.92
2019-05-18T01:29:20.877Z,100214.10
2019-05-18T01:30:26.947Z,100214.95
2019-05-18T01:31:32.709Z,100213.12
2019-05-18T01:32:37.776Z,100210.45
2019-05-18T01:33:43.423Z,100211.78
2019-05-18T01:34:48.850Z,100213.61
2019-05-18T01:35:54.355Z,100211.27
2019-05-18T01:36:59.696Z,100215.26
2019-05-18T01:38:06.342Z,100215.44
2019-05-18T01:39:11.404Z,100216.42
2019-05-18T01:40:17.291Z,100219.92
2019-05-18T01:41:22.403Z,100218.23
2019-05-18T01:42:27.937Z,100215.58
2019-05-18T01:43:32.935Z,100218.59
2019-05-18T01:44:38.851Z,100218.59
2019-05-18T01:45:43.999Z,100219.92
2019-05-18T01:46:49.887Z,100213.26
2019-05-18T01:47:54.898Z,100217.25
2019-05-18T01:49:00.805Z,100217.89
2019-05-18T01:50:06.416Z,100221.05
2019-05-18T01:51:12.280Z,100225.19
2019-05-18T01:52:17.300Z,100226.66
2019-05-18T01:53:23.135Z,100225.15
2019-05-18T01:54:28.074Z,100223.15
2019-05-18T01:55:33.588Z,100221.47
2019-05-18T01:56:38.534Z,100228.30
2019-05-18T01:57:44.380Z,100225.42
2019-05-18T01:58:49.401Z,100226.93
2019-05-18T01:59:54.920Z,100222.09
2019-05-18T02:00:59.939Z,100223.42
2019-05-18T02:02:07.704Z,100222.23
2019-05-18T02:03:12.794Z,100223.91
2019-05-18T02:04:18.743Z,100223.42
2019-05-18T02:05:23.885Z,100223.08
2019-05-18T02:06:29.378Z,100212.41
2019-05-18T02:07:34.314Z,100215.78
2019-05-18T02:08:40.160Z,100213.43
2019-05-18T02:09:45.100Z,100211.61
2019-05-18T02:10:50.616Z,100207.12
2019-05-18T02:11:55.878Z,100209.78
2019-05-18T02:13:01.539Z,100203.13
2019-05-18T02:14:06.918Z,100202.14
2019-05-18T02:15:12.885Z,100201.64
2019-05-18T02:16:17.916Z,100204.31
2019-05-18T02:17:23.691Z,100202.14
2019-05-18T02:18:29.481Z,100204.80
2019-05-18T02:19:35.043Z,100198.77
2019-05-18T02:20:40.285Z,100206.77
2019-05-18T02:21:46.191Z,100208.59
2019-05-18T02:22:51.173Z,100207.78
2019-05-18T02:23:57.149Z,100205.75
2019-05-18T02:25:02.171Z,100206.10
2019-05-18T02:26:07.948Z,100199.92
2019-05-18T02:27:13.344Z,100204.77
2019-05-18T02:28:18.917Z,100202.59
2019-05-18T02:29:24.197Z,100201.75
2019-05-18T02:30:29.897Z,100202.59
2019-05-18T02:31:35.063Z,100199.44
2019-05-18T02:32:40.633Z,100194.11
2019-05-18T02:33:45.967Z,100194.11
2019-05-18T02:34:51.479Z,100199.92
2019-05-18T02:35:56.440Z,100196.42
2019-05-18T02:37:02.405Z,100197.27
2019-05-18T02:38:17.025Z,100194.77
2019-05-18T02:39:22.598Z,100195.75
2019-05-18T02:40:28.090Z,100196.10
2019-05-18T02:41:33.585Z,100198.06
2019-05-18T02:42:38.585Z,100199.89
2019-05-18T02:43:44.155Z,100195.58
2019-05-18T02:44:49.241Z,100202.38
2019-05-18T02:45:54.823Z,100195.05
2019-05-18T02:46:59.961Z,100198.83
2019-05-18T02:48:05.559Z,100202.65
2019-05-18T02:49:10.974Z,100206.81
2019-05-18T02:50:16.807Z,100211.45
2019-05-18T02:51:22.119Z,100204.25
2019-05-18T02:52:28.270Z,100207.09
2019-05-18T02:53:33.556Z,100208.91
2019-05-18T02:54:39.047Z,100204.24
2019-05-18T02:55:44.362Z,100204.38
2019-05-18T02:56:50.033Z,100200.55
2019-05-18T02:57:55.027Z,100198.38
2019-05-18T02:59:00.598Z,100206.70
2019-05-18T03:00:07.050Z,100203.22
2019-05-18T03:01:12.876Z,100206.02
2019-05-18T03:02:18.209Z,100206.02
2019-05-18T03:03:23.767Z,100200.34
2019-05-18T03:04:28.763Z,100197.85
2019-05-18T03:05:34.391Z,100201.50
2019-05-18T03:06:39.417Z,100200.83
2019-05-18T03:07:45.078Z,100200.47
2019-05-18T03:08:50.182Z,100202.78
2019-05-18T03:09:55.856Z,100201.13
2019-05-18T03:11:01.163Z,100203.27
2019-05-18T03:12:06.776Z,100205.45
2019-05-18T03:13:11.864Z,100205.62
2019-05-18T03:14:17.752Z,100204.11
2019-05-18T03:15:22.837Z,100198.42
2019-05-18T03:16:28.757Z,100202.07
2019-05-18T03:17:33.743Z,100199.22
2019-05-18T03:18:39.343Z,100201.05
2019-05-18T03:19:44.424Z,100194.20
2019-05-18T03:20:50.448Z,100197.36
2019-05-18T03:22:00.922Z,100200.68
2019-05-18T03:23:05.061Z,100198.50
2019-05-18T03:24:10.145Z,100199.66
2019-05-18T03:25:15.913Z,100201.48
2019-05-18T03:26:20.846Z,100201.12
2019-05-18T03:27:26.686Z,100201.78
2019-05-18T03:28:31.624Z,100201.30
2019-05-18T03:29:37.140Z,100195.61
2019-05-18T03:30:42.133Z,100191.27
2019-05-18T03:31:47.758Z,100191.13
2019-05-18T03:32:52.798Z,100191.97
2019-05-18T03:33:58.706Z,100189.00
2019-05-18T03:35:04.106Z,100187.50
2019-05-18T03:36:10.095Z,100181.69
2019-05-18T03:37:15.702Z,100188.83
2019-05-18T03:38:21.236Z,100186.66
2019-05-18T03:39:26.297Z,100190.16
2019-05-18T03:40:31.800Z,100187.67
2019-05-18T03:41:36.864Z,100187.81
2019-05-18T03:42:42.374Z,100190.64
2019-05-18T03:43:47.597Z,100183.98
2019-05-18T03:44:53.526Z,100188.95
2019-05-18T03:45:58.455Z,100187.77
2019-05-18T03:47:04.014Z,100192.25
2019-05-18T03:48:09.265Z,100191.58
2019-05-18T03:49:26.119Z,100194.23
2019-05-18T03:50:21.456Z,100194.41
2019-05-18T03:51:27.297Z,100189.22
2019-05-18T03:52:32.559Z,100194.55
2019-05-18T03:53:38.709Z,100189.70
2019-05-18T03:54:45.589Z,100189.22
2019-05-18T03:55:51.240Z,100189.22
2019-05-18T03:56:56.176Z,100192.55
2019-05-18T03:58:02.441Z,100187.94
2019-05-18T03:59:07.884Z,100186.30
2019-05-18T04:00:14.025Z,100186.83
2019-05-18T04:01:19.279Z,100184.70
2019-05-18T04:02:25.151Z,100182.71
2019-05-18T04:03:30.086Z,100189.41
2019-05-18T04:04:35.587Z,100191.28
2019-05-18T04:05:42.305Z,100191.59
2019-05-18T04:06:47.882Z,100189.47
2019-05-18T04:07:52.917Z,100185.33
2019-05-18T04:08:59.059Z,100191.82
2019-05-18T04:10:04.476Z,100190.84
2019-05-18T04:11:10.042Z,100186.53
2019-05-18T04:12:15.415Z,100186.89
2019-05-18T04:13:20.991Z,100189.23
2019-05-18T04:14:26.185Z,100184.58
2019-05-18T04:15:31.695Z,100186.13
2019-05-18T04:16:36.716Z,100189.81
2019-05-18T04:17:42.234Z,100178.98
2019-05-18T04:18:47.181Z,100184.00
2019-05-18T04:19:52.724Z,100182.70
2019-05-18T04:20:59.505Z,100185.41
2019-05-18T04:22:05.407Z,100183.76
2019-05-18T04:23:10.460Z,100183.45
2019-05-18T04:24:16.306Z,100187.13
2019-05-18T04:25:21.576Z,100182.33
2019-05-18T04:26:27.378Z,100189.52
2019-05-18T04:27:32.667Z,100188.84
2019-05-18T04:28:38.266Z,100190.73
2019-05-18T04:29:43.568Z,100187.27
2019-05-18T04:30:49.065Z,100190.11
2019-05-18T04:31:54.446Z,100187.65
2019-05-18T04:33:00.342Z,100191.97
2019-05-18T04:34:05.380Z,100188.80
2019-05-18T04:35:11.556Z,100188.66
2019-05-18T04:36:16.504Z,100190.17
2019-05-18T04:37:22.345Z,100195.33
2019-05-18T04:38:27.297Z,100197.85
2019-05-18T04:39:32.890Z,100199.02
2019-05-18T04:40:37.842Z,100200.20
2019-05-18T04:41:46.510Z,100200.38
2019-05-18T04:42:51.806Z,100202.06
2019-05-18T04:43:57.588Z,100201.39
2019-05-18T04:45:02.990Z,100199.91
2019-05-18T04:46:08.659Z,100204.58
2019-05-18T04:47:13.862Z,100197.77
2019-05-18T04:48:19.358Z,100202.44
2019-05-18T04:49:24.371Z,100203.10
2019-05-18T04:50:30.025Z,100192.29
2019-05-18T04:51:34.954Z,100198.81
2019-05-18T04:52:40.812Z,100201.30
2019-05-18T04:53:45.763Z,100198.14
2019-05-18T04:54:51.427Z,100200.98
2019-05-18T04:55:57.054Z,100198.17
2019-05-18T04:57:02.561Z,100197.16
2019-05-18T04:58:07.575Z,100194.34
2019-05-18T04:59:13.057Z,100198.84
2019-05-18T05:00:18.258Z,100193.50
2019-05-18T05:01:23.790Z,100195.50
2019-05-18T05:02:28.966Z,100195.50
2019-05-18T05:03:34.825Z,100193.82
2019-05-18T05:04:40.172Z,100200.00
2019-05-18T05:05:45.969Z,100202.66
2019-05-18T05:06:52.175Z,100198.31
2019-05-18T05:07:58.281Z,100211.51
2019-05-18T05:09:04.762Z,100203.16
2019-05-18T05:10:10.383Z,100201.67
2019-05-18T05:11:15.382Z,100206.17
2019-05-18T05:12:20.953Z,100202.66
2019-05-18T05:13:25.907Z,100198.17
2019-05-18T05:14:31.403Z,100198.17
2019-05-18T05:15:36.396Z,100203.50
2019-05-18T05:16:42.288Z,100198.48
2019-05-18T05:17:47.528Z,100197.33
2019-05-18T05:18:53.327Z,100206.66
2019-05-18T05:19:58.616Z,100204.84
2019-05-18T05:21:04.171Z,100209.16
2019-05-18T05:22:09.423Z,100204.17
2019-05-18T05:23:14.963Z,100202.34
2019-05-18T05:24:19.918Z,100208.84
2019-05-18T05:25:25.748Z,100208.20
2019-05-18T05:26:30.728Z,100211.22
2019-05-18T05:27:36.725Z,100209.70
2019-05-18T05:28:41.665Z,100207.88
2019-05-18T05:29:47.445Z,100209.56
2019-05-18T05:30:52.448Z,100216.55
2019-05-18T05:31:57.953Z,100212.55
2019-05-18T05:33:02.946Z,100212.75
2019-05-18T05:34:08.522Z,100215.41
2019-05-18T05:35:13.806Z,100211.73
2019-05-18T05:36:19.300Z,100216.08
2019-05-18T05:37:24.602Z,100211.41
2019-05-18T05:38:30.626Z,100212.25
2019-05-18T05:39:36.002Z,100212.10
2019-05-18T05:40:42.076Z,100212.94
2019-05-18T05:41:47.033Z,100209.25
2019-05-18T05:42:52.623Z,100213.61
2019-05-18T05:43:57.703Z,100210.77
2019-05-18T05:45:03.265Z,100215.60
2019-05-18T05:46:08.522Z,100210.96
2019-05-18T05:47:14.190Z,100217.31
2019-05-18T05:48:19.149Z,100216.29
2019-05-18T05:49:25.060Z,100215.66
2019-05-18T05:50:36.142Z,100217.64
2019-05-18T05:51:37.561Z,100222.34
2019-05-18T05:52:42.599Z,100219.00
2019-05-18T05:53:48.125Z,100216.69
2019-05-18T05:54:53.478Z,100215.66
2019-05-18T05:55:59.028Z,100212.01
2019-05-18T05:57:04.170Z,100220.67
2019-05-18T05:58:09.663Z,100221.86
2019-05-18T05:59:14.629Z,100219.20
2019-05-18T06:00:20.891Z,100222.36
2019-05-18T06:01:26.457Z,100224.19
2019-05-18T06:02:31.941Z,100222.53
2019-05-18T06:03:37.034Z,100224.37
2019-05-18T06:04:43.296Z,100224.02
2019-05-18T06:05:48.734Z,100223.67
2019-05-18T06:06:54.312Z,100226.87
2019-05-18T06:07:59.476Z,100229.19
2019-05-18T06:09:07.560Z,100226.87
2019-05-18T06:10:13.322Z,100227.36
2019-05-18T06:11:19.160Z,100233.02
2019-05-18T06:12:24.279Z,100228.70
2019-05-18T06:13:30.032Z,100231.37
2019-05-18T06:14:35.121Z,100231.37
2019-05-18T06:15:40.580Z,100234.03
2019-05-18T06:16:45.586Z,100234.70
2019-05-18T06:17:51.169Z,100234.70
2019-05-18T06:18:56.125Z,100237.72
2019-05-18T06:20:01.723Z,100233.22
2019-05-18T06:21:06.853Z,100234.86
2019-05-18T06:22:12.665Z,100232.05
2019-05-18T06:23:18.009Z,100234.05
2019-05-18T06:24:23.585Z,100232.88
2019-05-18T06:25:34.069Z,100237.73
2019-05-18T06:26:36.130Z,100227.39
2019-05-18T06:27:41.313Z,100232.06
2019-05-18T06:28:46.820Z,100231.07
2019-05-18T06:29:51.764Z,100236.58
2019-05-18T06:30:57.288Z,100235.59
2019-05-18T06:32:02.294Z,100234.42
2019-05-18T06:33:08.115Z,100232.45
2019-05-18T06:34:13.174Z,100233.95
2019-05-18T06:35:19.000Z,100236.44
2019-05-18T06:36:24.074Z,100234.11
2019-05-18T06:37:29.854Z,100235.30
2019-05-18T06:38:35.391Z,100236.84
2019-05-18T06:39:40.907Z,100237.34
2019-05-18T06:40:45.935Z,100239.34
2019-05-18T06:41:51.478Z,100239.20
2019-05-18T06:42:56.529Z,100239.18
2019-05-18T06:44:02.023Z,100235.86
2019-05-18T06:45:07.354Z,100245.55
2019-05-18T06:46:12.998Z,100242.89
2019-05-18T06:47:18.017Z,100237.88
2019-05-18T06:48:24.268Z,100246.39
2019-05-18T06:49:29.298Z,100238.55
2019-05-18T06:50:35.391Z,100238.07
2019-05-18T06:51:40.335Z,100245.77
2019-05-18T06:52:45.850Z,100244.75
2019-05-18T06:53:50.931Z,100245.25
2019-05-18T06:54:56.451Z,100246.95
2019-05-18T06:56:03.003Z,100250.13
2019-05-18T06:57:09.385Z,100248.11
2019-05-18T06:58:16.111Z,100248.42
2019-05-18T06:59:22.052Z,100247.28
2019-05-18T07:00:27.467Z,100240.25
2019-05-18T07:01:33.244Z,100245.77
2019-05-18T07:02:38.262Z,100245.27
2019-05-18T07:03:45.095Z,100245.24
2019-05-18T07:04:50.204Z,100245.25
2019-05-18T07:05:56.111Z,100250.10
2019-05-18T07:07:01.198Z,100245.25
2019-05-18T07:08:06.851Z,100243.11
2019-05-18T07:09:14.256Z,100246.59
2019-05-18T07:10:19.725Z,100244.75
2019-05-18T07:11:24.831Z,100245.75
2019-05-18T07:12:30.736Z,100240.89
2019-05-18T07:13:35.742Z,100243.38
2019-05-18T07:14:41.672Z,100240.16
2019-05-18T07:15:46.694Z,100244.52
2019-05-18T07:16:52.289Z,100240.99
2019-05-18T07:17:57.353Z,100236.78
2019-05-18T07:19:03.200Z,100235.44
2019-05-18T07:20:08.610Z,100239.75
2019-05-18T07:21:21.948Z,100238.41
2019-05-18T07:22:21.469Z,100241.58
2019-05-18T07:23:27.055Z,100240.72
2019-05-18T07:24:32.325Z,100241.55
2019-05-18T07:25:38.245Z,100238.83
2019-05-18T07:26:43.858Z,100242.14
2019-05-18T07:27:49.674Z,100249.67
2019-05-18T07:28:55.307Z,100248.81
2019-05-18T07:30:00.930Z,100247.32
2019-05-18T07:31:07.283Z,100248.13
2019-05-18T07:32:12.784Z,100246.28
2019-05-18T07:33:18.218Z,100248.97
2019-05-18T07:34:26.554Z,100251.64
2019-05-18T07:35:30.875Z,100252.98
2019-05-18T07:36:36.400Z,100253.66
2019-05-18T07:37:41.760Z,100251.30
2019-05-18T07:38:47.558Z,100257.33
2019-05-18T07:39:52.688Z,100259.16
2019-05-18T07:40:58.353Z,100263.36
2019-05-18T07:42:03.292Z,100257.14
2019-05-18T07:43:09.185Z,100263.83
2019-05-18T07:44:14.184Z,100256.23
2019-05-18T07:45:19.847Z,100257.25
2019-05-18T07:46:24.904Z,100258.38
2019-05-18T07:47:30.476Z,100262.88
2019-05-18T07:48:35.781Z,100268.05
2019-05-18T07:49:41.674Z,100262.53
2019-05-18T07:50:46.755Z,100258.84
2019-05-18T07:51:52.561Z,100259.66
2019-05-18T07:52:57.601Z,100264.52
2019-05-18T07:54:03.799Z,100263.17
2019-05-18T07:55:10.121Z,100263.51
2019-05-18T07:56:15.707Z,100265.19
2019-05-18T07:57:21.012Z,100262.81
2019-05-18T07:58:26.879Z,100264.49
2019-05-18T07:59:31.940Z,100267.52
2019-05-18T08:00:37.767Z,100263.16
2019-05-18T08:01:42.875Z,100263.16
2019-05-18T08:02:48.391Z,100263.31
2019-05-18T08:03:53.557Z,100266.67
2019-05-18T08:04:59.154Z,100267.52
2019-05-18T08:06:04.232Z,100261.45
2019-05-18T08:07:09.905Z,100265.45
2019-05-18T08:08:14.884Z,100266.77
2019-05-18T08:09:20.486Z,100263.23
2019-05-18T08:10:36.599Z,100258.02
2019-05-18T08:11:42.148Z,100254.47
2019-05-18T08:12:47.072Z,100256.28
2019-05-18T08:13:52.597Z,100255.08
2019-05-18T08:14:58.264Z,100255.92
2019-05-18T08:16:03.875Z,100255.05
2019-05-18T08:17:09.018Z,100254.70
2019-05-18T08:18:14.606Z,100249.47
2019-05-18T08:19:19.639Z,100247.92
2019-05-18T08:20:25.166Z,100249.94
2019-05-18T08:21:30.285Z,100255.81
2019-05-18T08:22:36.426Z,100256.45
2019-05-18T08:23:41.725Z,100256.15
2019-05-18T08:24:47.244Z,100260.48
2019-05-18T08:25:52.291Z,100263.16
2019-05-18T08:26:57.797Z,100264.84
2019-05-18T08:28:02.735Z,100264.84
2019-05-18T08:29:08.234Z,100262.49
2019-05-18T08:30:13.748Z,100266.52
2019-05-18T08:31:19.236Z,100264.34
2019-05-18T08:32:24.155Z,100262.99
2019-05-18T08:33:29.710Z,100264.14
2019-05-18T08:34:34.920Z,100260.11
2019-05-18T08:35:40.560Z,100263.77
2019-05-18T08:36:45.461Z,100261.42
2019-05-18T08:37:51.101Z,100259.58
2019-05-18T08:38:56.086Z,100256.40
2019-05-18T08:40:01.619Z,100261.26
2019-05-18T08:41:06.680Z,100256.53
2019-05-18T08:42:12.193Z,100257.70
2019-05-18T08:43:17.145Z,100258.34
2019-05-18T08:44:22.761Z,100263.72
2019-05-18T08:45:27.780Z,100257.65
2019-05-18T08:46:33.243Z,100260.16
2019-05-18T08:47:38.585Z,100253.45
2019-05-18T08:48:44.260Z,100258.99
2019-05-18T08:49:49.286Z,100253.26
2019-05-18T08:50:55.338Z,100256.61
2019-05-18T08:52:08.216Z,100256.25
2019-05-18T08:53:07.975Z,100258.23
2019-05-18T08:54:13.275Z,100260.74
2019-05-18T08:55:18.824Z,100265.58
2019-05-18T08:56:24.065Z,100261.25
2019-05-18T08:57:29.605Z,100257.52
2019-05-18T08:58:34.936Z,100263.36
2019-05-18T08:59:40.744Z,100264.17
2019-05-18T09:00:45.709Z,100265.48
2019-05-18T09:01:51.208Z,100269.47
2019-05-18T09:02:56.454Z,100269.27
2019-05-18T09:04:01.940Z,100268.06
2019-05-18T09:05:07.831Z,100268.73
2019-05-18T09:06:13.318Z,100266.69
2019-05-18T09:07:18.594Z,100271.89
2019-05-18T09:08:24.107Z,100273.70
2019-05-18T09:09:29.080Z,100268.63
2019-05-18T09:10:34.717Z,100272.79
2019-05-18T09:11:40.233Z,100271.27
2019-05-18T09:12:45.988Z,100268.39
2019-05-18T09:13:50.988Z,100271.23
2019-05-18T09:14:56.731Z,100262.98
2019-05-18T09:16:01.743Z,100266.84
2019-05-18T09:17:07.294Z,100267.60
2019-05-18T09:18:12.338Z,100271.47
2019-05-18T09:19:18.225Z,100270.83
2019-05-18T09:20:23.205Z,100273.17
2019-05-18T09:21:29.273Z,100270.49
2019-05-18T09:22:34.276Z,100271.50
2019-05-18T09:23:40.160Z,100275.53
2019-05-18T09:24:45.544Z,100274.69
2019-05-18T09:25:51.083Z,100275.87
2019-05-18T09:26:56.288Z,100278.55
2019-05-18T09:28:02.373Z,100279.56
2019-05-18T09:29:07.637Z,100273.86
2019-05-18T09:30:13.639Z,100269.52
2019-05-18T09:31:18.646Z,100269.52
2019-05-18T09:32:24.737Z,100274.89
2019-05-18T09:33:29.745Z,100275.06
2019-05-18T09:34:35.201Z,100274.94
2019-05-18T09:35:40.224Z,100277.99
2019-05-18T09:36:45.915Z,100269.97
2019-05-18T09:37:50.908Z,100278.06
2019-05-18T09:38:56.446Z,100278.13
2019-05-18T09:40:01.710Z,100272.42
2019-05-18T09:41:07.327Z,100272.76
2019-05-18T09:42:12.257Z,100275.38
2019-05-18T09:43:18.115Z,100276.52
2019-05-18T09:44:23.422Z,100279.30
2019-05-18T09:45:29.386Z,100275.36
2019-05-18T09:46:34.976Z,100275.08
2019-05-18T09:47:40.553Z,100272.78
2019-05-18T09:48:45.511Z,100270.64
2019-05-18T09:49:51.270Z,100274.24
2019-05-18T09:50:56.286Z,100273.11
2019-05-18T09:52:01.987Z,100272.67
2019-05-18T09:53:07.222Z,100269.44
2019-05-18T09:54:12.832Z,100267.70
2019-05-18T09:55:18.065Z,100266.16
2019-05-18T09:56:23.667Z,100265.14
2019-05-18T09:57:28.632Z,100264.30
2019-05-18T09:58:34.528Z,100264.30
2019-05-18T09:59:39.517Z,100264.30
2019-05-18T10:00:45.404Z,100266.66
2019-05-18T10:01:50.833Z,100263.67
2019-05-18T10:02:56.360Z,100272.25
2019-05-18T10:04:01.662Z,100268.92
2019-05-18T10:05:08.143Z,100265.40
2019-05-18T10:06:13.211Z,100265.40
2019-05-18T10:07:19.005Z,100266.08
2019-05-18T10:08:24.215Z,100264.95
2019-05-18T10:09:38.535Z,100268.14
2019-05-18T10:10:36.522Z,100264.81
2019-05-18T10:11:42.245Z,100268.64
2019-05-18T10:12:47.369Z,100261.92
2019-05-18T10:13:53.338Z,100262.43
2019-05-18T10:14:58.412Z,100263.59
2019-05-18T10:16:03.924Z,100265.78
2019-05-18T10:17:08.946Z,100263.09
2019-05-18T10:18:14.436Z,100262.05
2019-05-18T10:19:19.429Z,100261.75
2019-05-18T10:20:25.342Z,100265.12
2019-05-18T10:21:30.439Z,100264.95
2019-05-18T10:22:36.304Z,100257.38
2019-05-18T10:23:41.410Z,100259.69
2019-05-18T10:24:46.926Z,100258.34
2019-05-18T10:25:51.872Z,100262.33
2019-05-18T10:26:57.446Z,100259.27
2019-05-18T10:28:02.478Z,100260.22
2019-05-18T10:29:08.099Z,100262.20
2019-05-18T10:30:14.843Z,100257.48
2019-05-18T10:31:20.427Z,100256.44
2019-05-18T10:32:25.799Z,100255.75
2019-05-18T10:33:31.760Z,100255.42
2019-05-18T10:34:36.715Z,100260.09
2019-05-18T10:35:42.434Z,100252.02
2019-05-18T10:36:47.727Z,100249.48
2019-05-18T10:37:53.544Z,100249.61
2019-05-18T10:38:58.521Z,100254.93
2019-05-18T10:40:04.120Z,100255.17
2019-05-18T10:41:09.114Z,100256.13
2019-05-18T10:42:14.764Z,100257.75
2019-05-18T10:43:19.767Z,100255.52
2019-05-18T10:44:25.268Z,100253.23
2019-05-18T10:45:30.325Z,100247.17
2019-05-18T10:46:35.847Z,100249.48
2019-05-18T10:47:41.102Z,100252.94
2019-05-18T10:48:46.659Z,100252.20
2019-05-18T10:49:52.013Z,100251.41
2019-05-18T10:50:57.565Z,100251.80
2019-05-18T10:52:02.840Z,100250.11
2019-05-18T10:53:08.527Z,100257.84
2019-05-18T10:54:13.750Z,100249.93
2019-05-18T10:55:20.086Z,100250.60
2019-05-18T10:56:25.116Z,100253.27
2019-05-18T10:57:31.128Z,100255.09
2019-05-18T10:58:36.061Z,100251.09
2019-05-18T10:59:41.610Z,100256.33
2019-05-18T11:00:46.742Z,100260.22
2019-05-18T11:01:52.600Z,100255.05
2019-05-18T11:02:57.682Z,100251.88
2019-05-18T11:04:03.228Z,100248.37
2019-05-18T11:05:08.784Z,100248.39
2019-05-18T11:06:14.574Z,100248.23
2019-05-18T11:07:20.027Z,100245.88
2019-05-18T11:08:25.818Z,100245.16
2019-05-18T11:09:31.005Z,100245.28
2019-05-18T11:10:36.633Z,100246.46
2019-05-18T11:11:42.003Z,100241.11
2019-05-18T11:12:47.750Z,100250.56
2019-05-18T11:13:52.954Z,100245.78
2019-05-18T11:14:58.523Z,100243.73
2019-05-18T11:16:03.769Z,100245.69
2019-05-18T11:17:09.390Z,100239.88
2019-05-18T11:18:14.481Z,100243.19
2019-05-18T11:19:20.431Z,100240.81
2019-05-18T11:20:25.529Z,100233.45
2019-05-18T11:21:31.439Z,100241.64
2019-05-18T11:22:36.589Z,100233.95
2019-05-18T11:23:44.331Z,100239.77
2019-05-18T11:24:49.082Z,100240.19
2019-05-18T11:25:55.005Z,100233.11
2019-05-18T11:26:59.970Z,100238.51
2019-05-18T11:28:05.581Z,100238.42
2019-05-18T11:29:10.702Z,100238.00
2019-05-18T11:30:18.363Z,100240.30
2019-05-18T11:31:23.461Z,100238.11
2019-05-18T11:32:28.952Z,100233.44
2019-05-18T11:33:34.167Z,100232.09
2019-05-18T11:34:39.708Z,100231.58
2019-05-18T11:35:44.989Z,100232.52
2019-05-18T11:36:50.641Z,100231.78
2019-05-18T11:37:55.993Z,100234.06
2019-05-18T11:39:01.671Z,100235.94
2019-05-18T11:40:07.395Z,100234.81
2019-05-18T11:41:13.043Z,100229.41
2019-05-18T11:42:18.367Z,100224.52
2019-05-18T11:43:24.299Z,100231.27
2019-05-18T11:44:29.276Z,100235.73
2019-05-18T11:45:35.069Z,100229.81
2019-05-18T11:46:40.222Z,100229.49
2019-05-18T11:47:45.940Z,100229.16
2019-05-18T11:48:51.170Z,100225.88
2019-05-18T11:49:56.681Z,100230.34
2019-05-18T11:51:01.926Z,100225.64
2019-05-18T11:52:07.581Z,100222.83
2019-05-18T11:53:12.735Z,100219.59
2019-05-18T11:54:18.399Z,100218.97
2019-05-18T11:55:23.944Z,100221.02
2019-05-18T11:56:29.858Z,100216.54
2019-05-18T11:57:35.286Z,100216.11
2019-05-18T11:58:40.955Z,100209.16
2019-05-18T11:59:45.884Z,100214.33
2019-05-18T12:00:51.902Z,100212.17
2019-05-18T12:01:56.967Z,100211.53
2019-05-18T12:03:02.460Z,100208.75
2019-05-18T12:04:07.478Z,100208.42
2019-05-18T12:05:13.562Z,100203.45
2019-05-18T12:06:18.619Z,100209.80
2019-05-18T12:07:24.471Z,100206.40
2019-05-18T12:08:29.424Z,100206.51
2019-05-18T12:09:35.040Z,100208.28
2019-05-18T12:10:40.042Z,100204.34
2019-05-18T12:11:45.587Z,100205.80
2019-05-18T12:12:50.744Z,100209.15
2019-05-18T12:13:56.370Z,100212.11
2019-05-18T12:15:01.323Z,100205.50
2019-05-18T12:16:07.538Z,100203.73
2019-05-18T12:17:12.737Z,100200.30
2019-05-18T12:18:18.423Z,100205.19
2019-05-18T12:19:23.539Z,100212.36
2019-05-18T12:20:29.551Z,100204.36
2019-05-18T12:21:34.805Z,100205.30
2019-05-18T12:22:40.327Z,100207.06
2019-05-18T12:23:45.437Z,100204.98
2019-05-18T12:24:51.074Z,100205.11
2019-05-18T12:25:56.039Z,100208.42
2019-05-18T12:27:01.775Z,100204.78
2019-05-18T12:28:07.347Z,100206.04